sensor_id;sensor_type;location;lat;lon;timestamp;temperature;humidity
45044;DHT22;30784;48.490;9.688;2023-07-31T00:00:40;17.10;51.00
45044;DHT22;30784;48.490;9.688;2023-07-31T00:03:06;17.10;51.10
45044;DHT22;30784;48.490;9.688;2023-07-31T00:05:31;17.10;51.10
45044;DHT22;30784;48.490;9.688;2023-07-31T00:07:57;17.10;51.20
45044;DHT22;30784;48.490;9.688;2023-07-31T00:10:22;17.10;51.20
45044;DHT22;30784;48.490;9.688;2023-07-31T00:12:48;17.00;51.20
45044;DHT22;30784;48.490;9.688;2023-07-31T00:15:14;17.00;51.40
45044;DHT22;30784;48.490;9.688;2023-07-31T00:17:40;17.00;51.40
45044;DHT22;30784;48.490;9.688;2023-07-31T00:20:06;17.00;51.50
45044;DHT22;30784;48.490;9.688;2023-07-31T00:22:31;17.00;51.60
45044;DHT22;30784;48.490;9.688;2023-07-31T00:24:57;17.00;51.60
45044;DHT22;30784;48.490;9.688;2023-07-31T00:27:23;17.00;51.60
45044;DHT22;30784;48.490;9.688;2023-07-31T00:29:48;17.00;51.70
45044;DHT22;30784;48.490;9.688;2023-07-31T00:32:14;17.00;52.30
45044;DHT22;30784;48.490;9.688;2023-07-31T00:34:39;17.00;52.00
45044;DHT22;30784;48.490;9.688;2023-07-31T00:37:05;16.90;51.90
45044;DHT22;30784;48.490;9.688;2023-07-31T00:39:31;16.90;51.80
45044;DHT22;30784;48.490;9.688;2023-07-31T00:41:57;17.00;52.20
45044;DHT22;30784;48.490;9.688;2023-07-31T00:44:22;16.80;52.10
45044;DHT22;30784;48.490;9.688;2023-07-31T00:46:48;16.90;52.90
45044;DHT22;30784;48.490;9.688;2023-07-31T00:49:15;16.80;52.40
45044;DHT22;30784;48.490;9.688;2023-07-31T00:51:41;16.80;52.40
45044;DHT22;30784;48.490;9.688;2023-07-31T00:54:06;16.80;52.40
45044;DHT22;30784;48.490;9.688;2023-07-31T00:56:32;16.90;52.70
45044;DHT22;30784;48.490;9.688;2023-07-31T00:58:58;16.70;52.60
45044;DHT22;30784;48.490;9.688;2023-07-31T01:01:23;16.70;52.60
45044;DHT22;30784;48.490;9.688;2023-07-31T01:03:50;16.70;52.70
45044;DHT22;30784;48.490;9.688;2023-07-31T01:09:11;16.70;52.50
45044;DHT22;30784;48.490;9.688;2023-07-31T01:11:52;16.70;52.70
45044;DHT22;30784;48.490;9.688;2023-07-31T01:14:18;16.60;52.80
45044;DHT22;30784;48.490;9.688;2023-07-31T01:16:44;16.60;53.40
45044;DHT22;30784;48.490;9.688;2023-07-31T01:19:10;16.70;52.90
45044;DHT22;30784;48.490;9.688;2023-07-31T01:21:52;16.70;53.10
45044;DHT22;30784;48.490;9.688;2023-07-31T01:24:28;16.70;52.90
45044;DHT22;30784;48.490;9.688;2023-07-31T01:27:14;16.70;53.00
45044;DHT22;30784;48.490;9.688;2023-07-31T01:29:49;16.70;52.60
45044;DHT22;30784;48.490;9.688;2023-07-31T01:32:18;16.80;52.90
45044;DHT22;30784;48.490;9.688;2023-07-31T01:34:44;16.70;53.10
45044;DHT22;30784;48.490;9.688;2023-07-31T01:40:32;16.70;52.70
45044;DHT22;30784;48.490;9.688;2023-07-31T01:42:58;16.80;53.00
45044;DHT22;30784;48.490;9.688;2023-07-31T01:45:23;16.80;53.00
45044;DHT22;30784;48.490;9.688;2023-07-31T01:47:49;16.80;53.10
45044;DHT22;30784;48.490;9.688;2023-07-31T01:50:14;16.80;53.00
45044;DHT22;30784;48.490;9.688;2023-07-31T01:52:40;16.70;53.00
45044;DHT22;30784;48.490;9.688;2023-07-31T01:55:06;16.80;53.10
45044;DHT22;30784;48.490;9.688;2023-07-31T01:57:31;16.80;53.10
45044;DHT22;30784;48.490;9.688;2023-07-31T01:59:57;16.80;53.10
45044;DHT22;30784;48.490;9.688;2023-07-31T02:02:22;16.80;53.00
45044;DHT22;30784;48.490;9.688;2023-07-31T02:04:48;16.80;53.10
45044;DHT22;30784;48.490;9.688;2023-07-31T02:07:14;16.80;53.00
45044;DHT22;30784;48.490;9.688;2023-07-31T02:09:40;16.80;53.10
45044;DHT22;30784;48.490;9.688;2023-07-31T02:12:06;16.80;53.10
45044;DHT22;30784;48.490;9.688;2023-07-31T02:14:34;16.80;53.10
45044;DHT22;30784;48.490;9.688;2023-07-31T02:16:59;16.80;53.10
45044;DHT22;30784;48.490;9.688;2023-07-31T02:19:25;16.80;53.20
45044;DHT22;30784;48.490;9.688;2023-07-31T02:21:50;16.80;53.20
45044;DHT22;30784;48.490;9.688;2023-07-31T02:24:16;16.70;53.30
45044;DHT22;30784;48.490;9.688;2023-07-31T02:26:41;16.60;53.80
45044;DHT22;30784;48.490;9.688;2023-07-31T02:29:08;16.60;53.50
45044;DHT22;30784;48.490;9.688;2023-07-31T02:31:33;16.60;54.00
45044;DHT22;30784;48.490;9.688;2023-07-31T02:33:59;16.50;53.50
45044;DHT22;30784;48.490;9.688;2023-07-31T02:39:46;16.50;53.30
45044;DHT22;30784;48.490;9.688;2023-07-31T02:42:13;16.50;53.90
45044;DHT22;30784;48.490;9.688;2023-07-31T02:44:39;16.30;54.00
45044;DHT22;30784;48.490;9.688;2023-07-31T02:47:04;16.40;54.50
45044;DHT22;30784;48.490;9.688;2023-07-31T02:49:30;16.40;54.00
45044;DHT22;30784;48.490;9.688;2023-07-31T02:51:55;16.30;54.10
45044;DHT22;30784;48.490;9.688;2023-07-31T02:54:21;16.40;54.20
45044;DHT22;30784;48.490;9.688;2023-07-31T02:56:47;16.40;54.70
45044;DHT22;30784;48.490;9.688;2023-07-31T02:59:13;16.40;54.20
45044;DHT22;30784;48.490;9.688;2023-07-31T03:01:38;16.40;54.10
45044;DHT22;30784;48.490;9.688;2023-07-31T03:04:04;16.40;54.00
45044;DHT22;30784;48.490;9.688;2023-07-31T03:06:30;16.40;54.10
45044;DHT22;30784;48.490;9.688;2023-07-31T03:08:55;16.50;54.10
45044;DHT22;30784;48.490;9.688;2023-07-31T03:11:21;16.40;54.00
45044;DHT22;30784;48.490;9.688;2023-07-31T03:13:46;16.50;54.00
45044;DHT22;30784;48.490;9.688;2023-07-31T03:16:12;16.40;54.00
45044;DHT22;30784;48.490;9.688;2023-07-31T03:18:37;16.40;54.00
45044;DHT22;30784;48.490;9.688;2023-07-31T03:21:04;16.40;54.00
45044;DHT22;30784;48.490;9.688;2023-07-31T03:23:29;16.40;54.10
45044;DHT22;30784;48.490;9.688;2023-07-31T03:26:00;16.40;54.10
45044;DHT22;30784;48.490;9.688;2023-07-31T03:28:26;16.50;54.10
45044;DHT22;30784;48.490;9.688;2023-07-31T03:30:52;16.40;54.00
45044;DHT22;30784;48.490;9.688;2023-07-31T03:33:18;16.40;54.00
45044;DHT22;30784;48.490;9.688;2023-07-31T03:35:43;16.40;54.00
45044;DHT22;30784;48.490;9.688;2023-07-31T03:38:09;16.40;54.10
45044;DHT22;30784;48.490;9.688;2023-07-31T03:40:34;16.40;54.10
45044;DHT22;30784;48.490;9.688;2023-07-31T03:43:00;16.40;54.00
45044;DHT22;30784;48.490;9.688;2023-07-31T03:45:25;16.50;54.00
45044;DHT22;30784;48.490;9.688;2023-07-31T03:47:51;16.40;54.00
45044;DHT22;30784;48.490;9.688;2023-07-31T03:50:17;16.40;53.90
45044;DHT22;30784;48.490;9.688;2023-07-31T03:52:42;16.50;54.00
45044;DHT22;30784;48.490;9.688;2023-07-31T03:55:08;16.50;53.90
45044;DHT22;30784;48.490;9.688;2023-07-31T03:57:34;16.50;53.80
45044;DHT22;30784;48.490;9.688;2023-07-31T03:59:59;16.50;53.80
45044;DHT22;30784;48.490;9.688;2023-07-31T04:02:25;16.50;53.80
45044;DHT22;30784;48.490;9.688;2023-07-31T04:04:50;16.50;53.80
45044;DHT22;30784;48.490;9.688;2023-07-31T04:07:16;16.50;53.80
45044;DHT22;30784;48.490;9.688;2023-07-31T04:09:41;16.50;53.80
45044;DHT22;30784;48.490;9.688;2023-07-31T04:12:07;16.50;53.80
45044;DHT22;30784;48.490;9.688;2023-07-31T04:14:32;16.50;53.80
45044;DHT22;30784;48.490;9.688;2023-07-31T04:16:58;16.50;53.80
45044;DHT22;30784;48.490;9.688;2023-07-31T04:19:24;16.50;53.80
45044;DHT22;30784;48.490;9.688;2023-07-31T04:21:50;16.50;53.90
45044;DHT22;30784;48.490;9.688;2023-07-31T04:24:15;16.50;54.00
45044;DHT22;30784;48.490;9.688;2023-07-31T04:26:41;16.50;54.20
45044;DHT22;30784;48.490;9.688;2023-07-31T04:29:06;16.50;54.20
45044;DHT22;30784;48.490;9.688;2023-07-31T04:31:33;16.50;54.30
45044;DHT22;30784;48.490;9.688;2023-07-31T04:33:59;16.40;54.30
45044;DHT22;30784;48.490;9.688;2023-07-31T04:36:24;16.40;54.40
45044;DHT22;30784;48.490;9.688;2023-07-31T04:38:50;16.50;54.50
45044;DHT22;30784;48.490;9.688;2023-07-31T04:41:15;16.50;54.60
45044;DHT22;30784;48.490;9.688;2023-07-31T04:43:41;16.50;54.60
45044;DHT22;30784;48.490;9.688;2023-07-31T04:46:06;16.50;54.60
45044;DHT22;30784;48.490;9.688;2023-07-31T04:48:32;16.50;54.60
45044;DHT22;30784;48.490;9.688;2023-07-31T04:50:57;16.60;54.70
45044;DHT22;30784;48.490;9.688;2023-07-31T04:53:23;16.60;54.80
45044;DHT22;30784;48.490;9.688;2023-07-31T04:55:48;16.60;54.90
45044;DHT22;30784;48.490;9.688;2023-07-31T04:58:14;16.60;54.90
45044;DHT22;30784;48.490;9.688;2023-07-31T05:00:39;16.60;55.00
45044;DHT22;30784;48.490;9.688;2023-07-31T05:03:05;16.60;55.00
45044;DHT22;30784;48.490;9.688;2023-07-31T05:05:31;16.70;55.10
45044;DHT22;30784;48.490;9.688;2023-07-31T05:07:56;16.70;55.00
45044;DHT22;30784;48.490;9.688;2023-07-31T05:10:22;16.80;55.10
45044;DHT22;30784;48.490;9.688;2023-07-31T05:12:48;16.80;55.00
45044;DHT22;30784;48.490;9.688;2023-07-31T05:15:13;16.80;54.90
45044;DHT22;30784;48.490;9.688;2023-07-31T05:17:39;16.90;54.90
45044;DHT22;30784;48.490;9.688;2023-07-31T05:20:05;17.00;54.90
45044;DHT22;30784;48.490;9.688;2023-07-31T05:22:30;17.00;54.90
45044;DHT22;30784;48.490;9.688;2023-07-31T05:24:56;17.00;54.90
45044;DHT22;30784;48.490;9.688;2023-07-31T05:27:21;17.10;55.00
45044;DHT22;30784;48.490;9.688;2023-07-31T05:29:47;17.10;54.90
45044;DHT22;30784;48.490;9.688;2023-07-31T05:32:12;17.20;55.00
45044;DHT22;30784;48.490;9.688;2023-07-31T05:34:38;17.20;55.00
45044;DHT22;30784;48.490;9.688;2023-07-31T05:37:04;17.20;55.00
45044;DHT22;30784;48.490;9.688;2023-07-31T05:39:30;17.20;55.10
45044;DHT22;30784;48.490;9.688;2023-07-31T05:41:55;17.30;55.10
45044;DHT22;30784;48.490;9.688;2023-07-31T05:44:21;17.30;55.20
45044;DHT22;30784;48.490;9.688;2023-07-31T05:46:46;17.40;55.30
45044;DHT22;30784;48.490;9.688;2023-07-31T05:49:12;17.40;55.20
45044;DHT22;30784;48.490;9.688;2023-07-31T05:51:37;17.50;55.10
45044;DHT22;30784;48.490;9.688;2023-07-31T05:54:03;17.60;55.20
45044;DHT22;30784;48.490;9.688;2023-07-31T05:56:28;17.60;55.20
45044;DHT22;30784;48.490;9.688;2023-07-31T05:58:54;17.60;55.20
45044;DHT22;30784;48.490;9.688;2023-07-31T06:01:19;17.70;55.20
45044;DHT22;30784;48.490;9.688;2023-07-31T06:03:46;17.80;55.20
45044;DHT22;30784;48.490;9.688;2023-07-31T06:06:12;17.90;55.40
45044;DHT22;30784;48.490;9.688;2023-07-31T06:08:38;18.00;55.40
45044;DHT22;30784;48.490;9.688;2023-07-31T06:11:05;18.00;55.00
45044;DHT22;30784;48.490;9.688;2023-07-31T06:13:31;18.10;55.00
45044;DHT22;30784;48.490;9.688;2023-07-31T06:15:56;18.20;54.70
45044;DHT22;30784;48.490;9.688;2023-07-31T06:18:22;18.20;54.40
45044;DHT22;30784;48.490;9.688;2023-07-31T06:20:47;18.30;54.40
45044;DHT22;30784;48.490;9.688;2023-07-31T06:23:18;18.30;54.30
45044;DHT22;30784;48.490;9.688;2023-07-31T06:25:44;18.40;54.20
45044;DHT22;30784;48.490;9.688;2023-07-31T06:28:09;18.40;54.20
45044;DHT22;30784;48.490;9.688;2023-07-31T06:30:35;18.40;54.30
45044;DHT22;30784;48.490;9.688;2023-07-31T06:33:00;18.50;54.20
45044;DHT22;30784;48.490;9.688;2023-07-31T06:35:26;18.50;54.20
45044;DHT22;30784;48.490;9.688;2023-07-31T06:37:51;18.60;54.20
45044;DHT22;30784;48.490;9.688;2023-07-31T06:40:17;18.60;54.00
45044;DHT22;30784;48.490;9.688;2023-07-31T06:42:42;18.60;53.80
45044;DHT22;30784;48.490;9.688;2023-07-31T06:45:08;18.70;53.70
45044;DHT22;30784;48.490;9.688;2023-07-31T06:47:34;18.60;53.30
45044;DHT22;30784;48.490;9.688;2023-07-31T06:50:00;18.60;53.20
45044;DHT22;30784;48.490;9.688;2023-07-31T06:52:25;18.70;53.30
45044;DHT22;30784;48.490;9.688;2023-07-31T06:55:02;18.70;53.30
45044;DHT22;30784;48.490;9.688;2023-07-31T06:57:29;18.70;53.40
45044;DHT22;30784;48.490;9.688;2023-07-31T06:59:54;18.70;53.30
45044;DHT22;30784;48.490;9.688;2023-07-31T07:02:20;18.70;53.30
45044;DHT22;30784;48.490;9.688;2023-07-31T07:04:45;18.60;53.30
45044;DHT22;30784;48.490;9.688;2023-07-31T07:07:11;18.70;53.20
45044;DHT22;30784;48.490;9.688;2023-07-31T07:09:37;18.70;53.20
45044;DHT22;30784;48.490;9.688;2023-07-31T07:12:02;18.80;53.20
45044;DHT22;30784;48.490;9.688;2023-07-31T07:14:28;18.80;53.10
45044;DHT22;30784;48.490;9.688;2023-07-31T07:16:53;18.80;53.20
45044;DHT22;30784;48.490;9.688;2023-07-31T07:19:19;18.80;53.20
45044;DHT22;30784;48.490;9.688;2023-07-31T07:21:44;18.80;53.00
45044;DHT22;30784;48.490;9.688;2023-07-31T07:24:10;18.80;53.00
45044;DHT22;30784;48.490;9.688;2023-07-31T07:26:35;18.80;53.10
45044;DHT22;30784;48.490;9.688;2023-07-31T07:29:01;18.90;53.00
45044;DHT22;30784;48.490;9.688;2023-07-31T07:31:28;18.90;53.00
45044;DHT22;30784;48.490;9.688;2023-07-31T07:33:53;19.00;53.00
45044;DHT22;30784;48.490;9.688;2023-07-31T07:36:19;19.10;52.90
45044;DHT22;30784;48.490;9.688;2023-07-31T07:38:45;19.20;52.90
45044;DHT22;30784;48.490;9.688;2023-07-31T07:41:10;19.30;52.60
45044;DHT22;30784;48.490;9.688;2023-07-31T07:43:36;19.40;52.60
45044;DHT22;30784;48.490;9.688;2023-07-31T07:46:01;19.50;52.10
45044;DHT22;30784;48.490;9.688;2023-07-31T07:48:27;19.60;52.00
45044;DHT22;30784;48.490;9.688;2023-07-31T07:50:53;19.70;51.90
45044;DHT22;30784;48.490;9.688;2023-07-31T07:53:18;19.80;51.50
45044;DHT22;30784;48.490;9.688;2023-07-31T07:55:43;19.90;51.20
45044;DHT22;30784;48.490;9.688;2023-07-31T07:58:09;20.00;51.20
45044;DHT22;30784;48.490;9.688;2023-07-31T08:00:35;20.10;51.00
45044;DHT22;30784;48.490;9.688;2023-07-31T08:03:00;20.20;50.60
45044;DHT22;30784;48.490;9.688;2023-07-31T08:05:26;20.30;50.70
45044;DHT22;30784;48.490;9.688;2023-07-31T08:07:51;20.30;50.30
45044;DHT22;30784;48.490;9.688;2023-07-31T08:10:17;20.40;49.90
45044;DHT22;30784;48.490;9.688;2023-07-31T08:12:42;20.40;49.30
45044;DHT22;30784;48.490;9.688;2023-07-31T08:15:08;20.50;49.60
45044;DHT22;30784;48.490;9.688;2023-07-31T08:17:34;20.50;49.50
45044;DHT22;30784;48.490;9.688;2023-07-31T08:19:59;20.50;49.50
45044;DHT22;30784;48.490;9.688;2023-07-31T08:22:25;20.60;49.00
45044;DHT22;30784;48.490;9.688;2023-07-31T08:24:51;20.70;49.10
45044;DHT22;30784;48.490;9.688;2023-07-31T08:27:16;20.80;49.20
45044;DHT22;30784;48.490;9.688;2023-07-31T08:29:42;20.90;48.90
45044;DHT22;30784;48.490;9.688;2023-07-31T08:32:07;21.10;48.20
45044;DHT22;30784;48.490;9.688;2023-07-31T08:34:33;21.20;48.40
45044;DHT22;30784;48.490;9.688;2023-07-31T08:36:58;21.40;48.40
45044;DHT22;30784;48.490;9.688;2023-07-31T08:39:24;21.50;48.00
45044;DHT22;30784;48.490;9.688;2023-07-31T08:41:49;21.60;48.00
45044;DHT22;30784;48.490;9.688;2023-07-31T08:44:15;21.80;47.60
45044;DHT22;30784;48.490;9.688;2023-07-31T08:46:42;21.90;47.50
45044;DHT22;30784;48.490;9.688;2023-07-31T08:49:09;22.00;47.20
45044;DHT22;30784;48.490;9.688;2023-07-31T08:51:36;22.10;47.00
45044;DHT22;30784;48.490;9.688;2023-07-31T08:54:02;22.30;46.50
45044;DHT22;30784;48.490;9.688;2023-07-31T08:56:30;22.40;46.30
45044;DHT22;30784;48.490;9.688;2023-07-31T08:58:58;22.60;46.40
45044;DHT22;30784;48.490;9.688;2023-07-31T09:01:24;22.70;45.50
45044;DHT22;30784;48.490;9.688;2023-07-31T09:03:51;22.90;45.10
45044;DHT22;30784;48.490;9.688;2023-07-31T09:06:18;23.00;45.00
45044;DHT22;30784;48.490;9.688;2023-07-31T09:08:46;23.00;44.90
45044;DHT22;30784;48.490;9.688;2023-07-31T09:11:12;23.20;44.60
45044;DHT22;30784;48.490;9.688;2023-07-31T09:13:40;23.20;44.80
45044;DHT22;30784;48.490;9.688;2023-07-31T09:16:07;23.40;44.50
45044;DHT22;30784;48.490;9.688;2023-07-31T09:18:53;23.50;45.10
45044;DHT22;30784;48.490;9.688;2023-07-31T09:21:18;23.70;44.70
45044;DHT22;30784;48.490;9.688;2023-07-31T09:23:45;23.90;44.00
45044;DHT22;30784;48.490;9.688;2023-07-31T09:26:35;24.00;43.40
45044;DHT22;30784;48.490;9.688;2023-07-31T09:29:04;24.20;43.90
45044;DHT22;30784;48.490;9.688;2023-07-31T09:31:41;24.30;42.80
45044;DHT22;30784;48.490;9.688;2023-07-31T09:34:07;24.50;42.90
45044;DHT22;30784;48.490;9.688;2023-07-31T09:36:34;24.60;41.50
45044;DHT22;30784;48.490;9.688;2023-07-31T09:39:04;24.60;41.70
45044;DHT22;30784;48.490;9.688;2023-07-31T09:41:30;24.70;41.50
45044;DHT22;30784;48.490;9.688;2023-07-31T09:43:56;24.80;41.20
45044;DHT22;30784;48.490;9.688;2023-07-31T09:46:22;24.80;41.10
45044;DHT22;30784;48.490;9.688;2023-07-31T09:48:47;24.90;40.80
45044;DHT22;30784;48.490;9.688;2023-07-31T09:51:13;25.10;40.40
45044;DHT22;30784;48.490;9.688;2023-07-31T09:53:38;25.10;39.70
45044;DHT22;30784;48.490;9.688;2023-07-31T09:56:05;25.20;39.30
45044;DHT22;30784;48.490;9.688;2023-07-31T09:58:34;25.20;39.60
45044;DHT22;30784;48.490;9.688;2023-07-31T10:01:02;25.30;39.50
45044;DHT22;30784;48.490;9.688;2023-07-31T10:03:29;25.30;39.20
45044;DHT22;30784;48.490;9.688;2023-07-31T10:05:57;25.40;39.50
45044;DHT22;30784;48.490;9.688;2023-07-31T10:08:28;25.50;38.80
45044;DHT22;30784;48.490;9.688;2023-07-31T10:10:58;25.50;38.90
45044;DHT22;30784;48.490;9.688;2023-07-31T10:13:25;25.40;38.40
45044;DHT22;30784;48.490;9.688;2023-07-31T10:15:53;25.40;38.10
45044;DHT22;30784;48.490;9.688;2023-07-31T10:18:20;25.40;38.60
45044;DHT22;30784;48.490;9.688;2023-07-31T10:20:46;25.50;38.60
45044;DHT22;30784;48.490;9.688;2023-07-31T10:23:12;25.60;38.30
45044;DHT22;30784;48.490;9.688;2023-07-31T10:25:39;25.70;38.10
45044;DHT22;30784;48.490;9.688;2023-07-31T10:28:05;25.80;37.90
45044;DHT22;30784;48.490;9.688;2023-07-31T10:30:33;25.90;37.60
45044;DHT22;30784;48.490;9.688;2023-07-31T10:33:00;26.00;37.70
45044;DHT22;30784;48.490;9.688;2023-07-31T10:35:28;26.10;37.50
45044;DHT22;30784;48.490;9.688;2023-07-31T10:37:53;26.20;37.40
45044;DHT22;30784;48.490;9.688;2023-07-31T10:40:24;26.30;36.90
45044;DHT22;30784;48.490;9.688;2023-07-31T10:42:57;26.40;36.70
45044;DHT22;30784;48.490;9.688;2023-07-31T10:45:32;26.50;36.90
45044;DHT22;30784;48.490;9.688;2023-07-31T10:47:59;26.50;37.00
45044;DHT22;30784;48.490;9.688;2023-07-31T10:50:26;26.60;36.60
45044;DHT22;30784;48.490;9.688;2023-07-31T10:52:53;26.70;36.40
45044;DHT22;30784;48.490;9.688;2023-07-31T10:55:33;26.70;36.10
45044;DHT22;30784;48.490;9.688;2023-07-31T10:58:13;26.70;36.20
45044;DHT22;30784;48.490;9.688;2023-07-31T11:00:43;26.80;36.20
45044;DHT22;30784;48.490;9.688;2023-07-31T11:03:12;26.80;35.90
45044;DHT22;30784;48.490;9.688;2023-07-31T11:08:22;27.10;36.10
45044;DHT22;30784;48.490;9.688;2023-07-31T11:10:51;27.20;36.20
45044;DHT22;30784;48.490;9.688;2023-07-31T11:13:30;27.40;35.90
45044;DHT22;30784;48.490;9.688;2023-07-31T11:15:56;27.50;35.30
45044;DHT22;30784;48.490;9.688;2023-07-31T11:18:21;27.70;35.10
45044;DHT22;30784;48.490;9.688;2023-07-31T11:20:47;27.80;34.90
45044;DHT22;30784;48.490;9.688;2023-07-31T11:23:15;28.00;35.00
45044;DHT22;30784;48.490;9.688;2023-07-31T11:25:40;28.10;34.80
45044;DHT22;30784;48.490;9.688;2023-07-31T11:28:09;28.20;34.60
45044;DHT22;30784;48.490;9.688;2023-07-31T11:30:35;28.30;34.20
45044;DHT22;30784;48.490;9.688;2023-07-31T11:33:02;28.40;34.00
45044;DHT22;30784;48.490;9.688;2023-07-31T11:35:44;28.50;33.70
45044;DHT22;30784;48.490;9.688;2023-07-31T11:38:29;28.60;33.40
45044;DHT22;30784;48.490;9.688;2023-07-31T11:40:57;28.60;32.90
45044;DHT22;30784;48.490;9.688;2023-07-31T11:43:24;28.60;32.70
45044;DHT22;30784;48.490;9.688;2023-07-31T11:45:55;28.60;32.80
45044;DHT22;30784;48.490;9.688;2023-07-31T11:48:23;28.60;33.00
45044;DHT22;30784;48.490;9.688;2023-07-31T11:50:50;28.60;32.80
45044;DHT22;30784;48.490;9.688;2023-07-31T11:53:19;28.50;32.90
45044;DHT22;30784;48.490;9.688;2023-07-31T11:55:46;28.50;33.00
45044;DHT22;30784;48.490;9.688;2023-07-31T11:58:13;28.40;32.90
45044;DHT22;30784;48.490;9.688;2023-07-31T12:00:40;28.40;32.70
45044;DHT22;30784;48.490;9.688;2023-07-31T12:03:06;28.40;33.20
45044;DHT22;30784;48.490;9.688;2023-07-31T12:05:32;28.30;33.00
45044;DHT22;30784;48.490;9.688;2023-07-31T12:07:57;28.40;32.90
45044;DHT22;30784;48.490;9.688;2023-07-31T12:10:28;28.50;32.80
45044;DHT22;30784;48.490;9.688;2023-07-31T12:15:42;28.50;33.00
45044;DHT22;30784;48.490;9.688;2023-07-31T12:18:11;28.40;32.60
45044;DHT22;30784;48.490;9.688;2023-07-31T12:20:44;28.40;32.60
45044;DHT22;30784;48.490;9.688;2023-07-31T12:23:17;28.40;32.60
45044;DHT22;30784;48.490;9.688;2023-07-31T12:25:44;28.30;32.70
45044;DHT22;30784;48.490;9.688;2023-07-31T12:28:09;28.20;32.80
45044;DHT22;30784;48.490;9.688;2023-07-31T12:30:39;28.10;32.60
45044;DHT22;30784;48.490;9.688;2023-07-31T12:33:14;28.00;32.70
45044;DHT22;30784;48.490;9.688;2023-07-31T12:35:46;28.00;32.90
45044;DHT22;30784;48.490;9.688;2023-07-31T12:38:12;27.90;32.90
45044;DHT22;30784;48.490;9.688;2023-07-31T12:40:39;27.80;33.10
45044;DHT22;30784;48.490;9.688;2023-07-31T12:43:06;27.70;33.10
45044;DHT22;30784;48.490;9.688;2023-07-31T12:45:31;27.70;33.20
45044;DHT22;30784;48.490;9.688;2023-07-31T12:47:58;27.60;33.40
45044;DHT22;30784;48.490;9.688;2023-07-31T12:50:24;27.50;33.60
45044;DHT22;30784;48.490;9.688;2023-07-31T12:52:51;27.40;33.80
45044;DHT22;30784;48.490;9.688;2023-07-31T12:55:16;27.40;34.10
45044;DHT22;30784;48.490;9.688;2023-07-31T12:57:43;27.30;34.40
45044;DHT22;30784;48.490;9.688;2023-07-31T13:00:09;27.30;34.30
45044;DHT22;30784;48.490;9.688;2023-07-31T13:02:35;27.20;34.50
45044;DHT22;30784;48.490;9.688;2023-07-31T13:05:00;27.10;34.50
45044;DHT22;30784;48.490;9.688;2023-07-31T13:07:26;27.10;34.50
45044;DHT22;30784;48.490;9.688;2023-07-31T13:09:52;27.00;34.50
45044;DHT22;30784;48.490;9.688;2023-07-31T13:12:17;27.00;34.60
45044;DHT22;30784;48.490;9.688;2023-07-31T13:14:43;26.90;34.80
45044;DHT22;30784;48.490;9.688;2023-07-31T13:17:08;26.90;35.00
45044;DHT22;30784;48.490;9.688;2023-07-31T13:19:34;26.80;35.00
45044;DHT22;30784;48.490;9.688;2023-07-31T13:21:59;26.80;35.00
45044;DHT22;30784;48.490;9.688;2023-07-31T13:24:25;26.70;34.90
45044;DHT22;30784;48.490;9.688;2023-07-31T13:26:50;26.80;34.80
45044;DHT22;30784;48.490;9.688;2023-07-31T13:29:16;26.70;34.70
45044;DHT22;30784;48.490;9.688;2023-07-31T13:31:41;26.70;34.80
45044;DHT22;30784;48.490;9.688;2023-07-31T13:34:07;26.70;35.00
45044;DHT22;30784;48.490;9.688;2023-07-31T13:36:32;26.70;35.10
45044;DHT22;30784;48.490;9.688;2023-07-31T13:38:59;26.80;35.10
45044;DHT22;30784;48.490;9.688;2023-07-31T13:41:26;26.90;35.20
45044;DHT22;30784;48.490;9.688;2023-07-31T13:43:51;26.90;35.00
45044;DHT22;30784;48.490;9.688;2023-07-31T13:46:17;26.90;34.80
45044;DHT22;30784;48.490;9.688;2023-07-31T13:48:42;26.90;34.60
45044;DHT22;30784;48.490;9.688;2023-07-31T13:51:08;27.00;34.40
45044;DHT22;30784;48.490;9.688;2023-07-31T13:53:33;27.00;34.70
45044;DHT22;30784;48.490;9.688;2023-07-31T13:55:59;27.00;34.30
45044;DHT22;30784;48.490;9.688;2023-07-31T13:58:25;27.00;34.40
45044;DHT22;30784;48.490;9.688;2023-07-31T14:00:50;27.10;34.20
45044;DHT22;30784;48.490;9.688;2023-07-31T14:03:16;27.10;34.00
45044;DHT22;30784;48.490;9.688;2023-07-31T14:05:41;27.00;33.80
45044;DHT22;30784;48.490;9.688;2023-07-31T14:08:07;27.10;33.90
45044;DHT22;30784;48.490;9.688;2023-07-31T14:10:32;27.10;34.00
45044;DHT22;30784;48.490;9.688;2023-07-31T14:12:58;27.10;34.00
45044;DHT22;30784;48.490;9.688;2023-07-31T14:15:23;27.10;33.80
45044;DHT22;30784;48.490;9.688;2023-07-31T14:17:49;27.10;33.90
45044;DHT22;30784;48.490;9.688;2023-07-31T14:20:14;27.10;34.00
45044;DHT22;30784;48.490;9.688;2023-07-31T14:22:40;27.00;34.20
45044;DHT22;30784;48.490;9.688;2023-07-31T14:25:06;27.10;34.20
45044;DHT22;30784;48.490;9.688;2023-07-31T14:27:31;27.10;34.20
45044;DHT22;30784;48.490;9.688;2023-07-31T14:29:57;27.10;34.30
45044;DHT22;30784;48.490;9.688;2023-07-31T14:32:23;27.00;34.30
45044;DHT22;30784;48.490;9.688;2023-07-31T14:34:50;27.00;34.50
45044;DHT22;30784;48.490;9.688;2023-07-31T14:37:16;27.00;34.70
45044;DHT22;30784;48.490;9.688;2023-07-31T14:39:41;27.00;34.70
45044;DHT22;30784;48.490;9.688;2023-07-31T14:42:07;27.00;34.80
45044;DHT22;30784;48.490;9.688;2023-07-31T14:44:32;26.90;35.00
45044;DHT22;30784;48.490;9.688;2023-07-31T14:46:58;26.80;35.00
45044;DHT22;30784;48.490;9.688;2023-07-31T14:49:23;26.80;35.10
45044;DHT22;30784;48.490;9.688;2023-07-31T14:51:49;26.80;35.20
45044;DHT22;30784;48.490;9.688;2023-07-31T14:54:14;26.70;35.10
45044;DHT22;30784;48.490;9.688;2023-07-31T14:56:40;26.70;35.20
45044;DHT22;30784;48.490;9.688;2023-07-31T14:59:05;26.60;35.30
45044;DHT22;30784;48.490;9.688;2023-07-31T15:01:33;26.60;35.60
45044;DHT22;30784;48.490;9.688;2023-07-31T15:03:59;26.50;35.70
45044;DHT22;30784;48.490;9.688;2023-07-31T15:06:24;26.40;35.70
45044;DHT22;30784;48.490;9.688;2023-07-31T15:08:49;26.40;35.80
45044;DHT22;30784;48.490;9.688;2023-07-31T15:11:15;26.30;36.00
45044;DHT22;30784;48.490;9.688;2023-07-31T15:13:41;26.30;36.40
45044;DHT22;30784;48.490;9.688;2023-07-31T15:16:07;26.20;36.50
45044;DHT22;30784;48.490;9.688;2023-07-31T15:18:32;26.20;36.70
45044;DHT22;30784;48.490;9.688;2023-07-31T15:20:58;26.20;36.80
45044;DHT22;30784;48.490;9.688;2023-07-31T15:23:23;26.10;37.00
45044;DHT22;30784;48.490;9.688;2023-07-31T15:25:49;26.10;37.10
45044;DHT22;30784;48.490;9.688;2023-07-31T15:28:14;26.10;37.20
45044;DHT22;30784;48.490;9.688;2023-07-31T15:30:40;26.00;37.00
45044;DHT22;30784;48.490;9.688;2023-07-31T15:33:06;26.00;37.10
45044;DHT22;30784;48.490;9.688;2023-07-31T15:35:31;25.90;37.10
45044;DHT22;30784;48.490;9.688;2023-07-31T15:37:57;25.90;37.30
45044;DHT22;30784;48.490;9.688;2023-07-31T15:40:22;25.80;37.20